Airfield :
LOGIN :

Register | Disclaimer

   EN    FR    IT 

 










Legend :    VFR   Marginal VFR   IFR   Intensive IFR   Very Intensive IFR
Visi :
Ceiling :
>= 8 km
>= 3000ft
5 to 8 km
1000 to 3000 ft
1500m to 5 km
500 to 1000 ft
800 to 1500m
200 to 500 ft
< 800m
< 200 ft
Symbols :   Thunderstorms  Fog  Heavy snow  Heavy precipitations  Wind > 20 kt
SIGMETs :     Misc.  Thunderstorms  Icing  Turbulence  Mountain Waves  Volcanic Ashes






- Airport Elevation : 273 ft


EGXT - RAF Wittering Stamford

CURRENT METAR :
  • 241320Z 24007KT 6000 HZ OVC022 07/06 Q1020

EXPIRED METARs :
  • 241250Z 25007KT 5000 BR FEW020 OVC022 07/06 Q1021 RMK WHT
  • 241220Z 24006KT 5000 BR OVC020 07/06 Q1021 RMK WHT
  • 241150Z 22003KT 4400 BR OVC018 07/06 Q1021 GRN
  • 241120Z 24004KT 4100 BR OVC018 07/06 Q1022 RMK GRN
  • 241050Z 23004KT 4100 BR OVC018 07/06 Q1022 RMK GRN

TAF AMD TAF EGXT
Valid from the 24 at 12:00 until the 24 at 18:00 UTC


241147Z 2412/2418 25008KT 4000 BR BKN016
BECMG 2412/2414 9999 NSW
PROB30
TEMPO 2412/2417 SCT009
BECMG 2416/2418 6000 BR



MET'MAP, your aeronautical weather chart ! - Copyright ORBIFLY December 2007 - Disclaimer

ORBIFLY MET'MAP TEAM :

Programming & Development : Alexandra Zaïnal
Concept & original design : Baudouin d'Aumeries
Assistance for programming : Marc-Olivier Méhu
Technical & hardware support : Manuel Goepfert

Contact : metmap@orbifly.com




SOURCES & CREDITS :

   NOAA